createdAt,value
2019-01-26T00:01:09.440Z,-1.40
2019-01-26T00:03:37.910Z,-1.30
2019-01-26T00:06:06.404Z,-1.30
2019-01-26T00:08:35.113Z,-1.30
2019-01-26T00:11:22.878Z,-1.30
2019-01-26T00:13:51.309Z,-1.30
2019-01-26T00:16:21.164Z,-1.20
2019-01-26T00:18:49.856Z,-1.20
2019-01-26T00:21:18.301Z,-1.20
2019-01-26T00:23:46.724Z,-1.20
2019-01-26T00:26:15.162Z,-1.10
2019-01-26T00:28:43.588Z,-1.10
2019-01-26T00:31:12.022Z,-1.10
2019-01-26T00:33:43.299Z,-1.20
2019-01-26T00:36:11.128Z,-1.20
2019-01-26T00:38:39.546Z,-1.20
2019-01-26T00:41:08.290Z,-1.20
2019-01-26T00:43:36.713Z,-1.30
2019-01-26T00:46:05.148Z,-1.30
2019-01-26T00:48:33.568Z,-1.30
2019-01-26T00:51:02.008Z,-1.30
2019-01-26T00:53:30.420Z,-1.30
2019-01-26T00:55:58.858Z,-1.30
2019-01-26T00:58:27.276Z,-1.30
2019-01-26T01:00:55.700Z,-1.20
2019-01-26T01:03:24.143Z,-1.20
2019-01-26T01:05:52.635Z,-1.20
2019-01-26T01:08:21.064Z,-1.10
2019-01-26T01:10:49.488Z,-1.10
2019-01-26T01:13:17.953Z,-1.10
2019-01-26T01:15:46.388Z,-1.10
2019-01-26T01:18:14.808Z,-1.00
2019-01-26T01:20:43.260Z,-1.00
2019-01-26T01:23:11.686Z,-1.00
2019-01-26T01:25:40.108Z,-1.00
2019-01-26T01:28:08.605Z,-1.00
2019-01-26T01:30:37.405Z,-1.00
2019-01-26T01:33:06.079Z,-1.00
2019-01-26T01:35:34.500Z,-1.00
2019-01-26T01:38:03.253Z,-0.90
2019-01-26T01:40:31.679Z,-0.90
2019-01-26T01:43:00.422Z,-0.90
2019-01-26T01:45:28.845Z,-0.80
2019-01-26T01:47:57.281Z,-0.80
2019-01-26T01:50:25.709Z,-0.80
2019-01-26T01:52:54.149Z,-0.80
2019-01-26T01:55:22.578Z,-0.80
2019-01-26T01:57:51.006Z,-0.70
2019-01-26T02:00:22.356Z,-0.70
2019-01-26T02:02:50.865Z,-0.70
2019-01-26T02:05:19.622Z,-0.70
2019-01-26T02:07:48.052Z,-0.70
2019-01-26T02:10:19.581Z,-0.70
2019-01-26T02:12:48.144Z,-0.60
2019-01-26T02:15:16.633Z,-0.60
2019-01-26T02:17:45.128Z,-0.60
2019-01-26T02:20:16.952Z,-0.60
2019-01-26T02:22:45.381Z,-0.60
2019-01-26T02:25:14.055Z,-0.50
2019-01-26T02:27:42.481Z,-0.50
2019-01-26T02:30:13.838Z,-0.50
2019-01-26T02:32:42.265Z,-0.50
2019-01-26T02:35:10.752Z,-0.50
2019-01-26T02:37:39.488Z,-0.50
2019-01-26T02:40:10.666Z,-0.40
2019-01-26T02:42:39.084Z,-0.40
2019-01-26T02:45:09.443Z,-0.40
2019-01-26T02:47:37.857Z,-0.40
2019-01-26T02:50:09.778Z,-0.40
2019-01-26T02:52:38.183Z,-0.40
2019-01-26T02:55:06.856Z,-0.40
2019-01-26T02:57:35.263Z,-0.40
2019-01-26T03:00:06.864Z,-0.40
2019-01-26T03:02:35.284Z,-0.40
2019-01-26T03:05:06.352Z,-0.30
2019-01-26T03:07:34.777Z,-0.30
2019-01-26T03:10:03.937Z,-0.30
2019-01-26T03:12:32.366Z,-0.30
2019-01-26T03:15:00.768Z,-0.30
2019-01-26T03:17:29.189Z,-0.20
2019-01-26T03:19:57.622Z,-0.20
2019-01-26T03:22:26.290Z,-0.20
2019-01-26T03:24:54.721Z,-0.20
2019-01-26T03:27:23.153Z,-0.20
2019-01-26T03:29:51.592Z,-0.20
2019-01-26T03:32:20.019Z,-0.20
2019-01-26T03:34:48.432Z,-0.10
2019-01-26T03:37:16.859Z,-0.10
2019-01-26T03:39:45.285Z,-0.10
2019-01-26T03:42:13.692Z,-0.10
2019-01-26T03:44:42.131Z,-0.10
2019-01-26T03:47:13.825Z,0.00
2019-01-26T03:49:40.690Z,0.00
2019-01-26T03:52:09.116Z,0.00
2019-01-26T03:54:37.540Z,0.00
2019-01-26T03:57:05.967Z,0.00
2019-01-26T03:59:34.379Z,0.10
2019-01-26T04:02:02.797Z,0.10
2019-01-26T04:04:31.614Z,0.00
2019-01-26T04:07:00.012Z,0.10
2019-01-26T04:09:28.426Z,0.10
2019-01-26T04:11:56.864Z,0.10
2019-01-26T04:14:25.614Z,0.10
2019-01-26T04:16:54.097Z,0.20
2019-01-26T04:19:22.766Z,0.20
2019-01-26T04:21:51.183Z,0.20
2019-01-26T04:24:19.594Z,0.30
2019-01-26T04:26:48.028Z,0.40
2019-01-26T04:29:16.441Z,0.40
2019-01-26T04:31:44.864Z,0.40
2019-01-26T04:34:13.284Z,0.50
2019-01-26T04:36:41.706Z,0.50
2019-01-26T04:39:10.112Z,0.50
2019-01-26T04:41:38.801Z,0.50
2019-01-26T04:44:07.216Z,0.50
2019-01-26T04:46:35.640Z,0.50
2019-01-26T04:49:04.112Z,0.50
2019-01-26T04:51:32.544Z,0.50
2019-01-26T04:54:00.948Z,0.50
2019-01-26T04:56:29.373Z,0.50
2019-01-26T04:58:57.780Z,0.50
2019-01-26T05:01:26.552Z,0.60
2019-01-26T05:03:55.233Z,0.60
2019-01-26T05:06:23.657Z,0.60
2019-01-26T05:08:52.071Z,0.60
2019-01-26T05:11:20.784Z,0.60
2019-01-26T05:13:49.194Z,0.70
2019-01-26T05:16:17.640Z,0.70
2019-01-26T05:18:46.104Z,0.70
2019-01-26T05:21:14.540Z,0.70
2019-01-26T05:23:42.949Z,0.80
2019-01-26T05:26:11.368Z,0.80
2019-01-26T05:28:39.778Z,0.80
2019-01-26T05:31:08.196Z,0.80
2019-01-26T05:33:36.601Z,0.80
2019-01-26T05:36:05.300Z,0.90
2019-01-26T05:38:33.724Z,0.80
2019-01-26T05:41:02.140Z,0.90
2019-01-26T05:43:49.956Z,0.80
2019-01-26T05:46:18.400Z,0.80
2019-01-26T05:48:46.804Z,0.80
2019-01-26T05:51:15.222Z,0.90
2019-01-26T05:53:43.633Z,0.90
2019-01-26T05:56:12.047Z,0.90
2019-01-26T05:58:40.465Z,0.90
2019-01-26T06:01:08.868Z,0.90
2019-01-26T06:03:37.298Z,0.90
2019-01-26T06:06:05.713Z,0.90
2019-01-26T06:08:34.137Z,0.90
2019-01-26T06:11:02.550Z,0.90
2019-01-26T06:13:30.960Z,0.90
2019-01-26T06:15:59.369Z,0.90
2019-01-26T06:18:28.105Z,0.90
2019-01-26T06:20:56.582Z,0.90
2019-01-26T06:23:25.004Z,0.90
2019-01-26T06:25:53.750Z,1.00
2019-01-26T06:28:22.160Z,1.00
2019-01-26T06:30:50.917Z,1.00
2019-01-26T06:33:19.342Z,1.10
2019-01-26T06:35:47.757Z,1.10
2019-01-26T06:38:16.253Z,1.00
2019-01-26T06:40:44.663Z,1.00
2019-01-26T06:43:13.078Z,1.00
2019-01-26T06:45:41.492Z,1.00
2019-01-26T06:48:09.900Z,1.00
2019-01-26T06:50:38.313Z,1.00
2019-01-26T06:53:06.728Z,1.00
2019-01-26T06:55:35.207Z,1.00
2019-01-26T06:58:03.629Z,1.10
2019-01-26T07:00:32.035Z,1.10
2019-01-26T07:03:00.527Z,1.10
2019-01-26T07:05:30.584Z,1.10
2019-01-26T07:07:59.008Z,1.10
2019-01-26T07:10:27.422Z,1.10
2019-01-26T07:12:55.832Z,1.10
2019-01-26T07:15:24.264Z,1.20
2019-01-26T07:17:52.760Z,1.20
2019-01-26T07:20:21.288Z,1.20
2019-01-26T07:22:49.710Z,1.30
2019-01-26T07:25:18.857Z,1.30
2019-01-26T07:27:47.276Z,1.30
2019-01-26T07:30:25.859Z,1.30
2019-01-26T07:32:54.634Z,1.40
2019-01-26T07:35:23.040Z,1.40
2019-01-26T07:37:51.541Z,1.50
2019-01-26T07:40:23.033Z,1.50
2019-01-26T07:42:51.924Z,1.50
2019-01-26T07:45:20.468Z,1.50
2019-01-26T07:47:49.020Z,1.50
2019-01-26T07:50:23.025Z,1.60
2019-01-26T07:52:51.433Z,1.60
2019-01-26T07:55:19.920Z,1.60
2019-01-26T07:57:48.472Z,1.60
2019-01-26T08:00:22.430Z,1.60
2019-01-26T08:02:50.844Z,1.60
2019-01-26T08:05:19.328Z,1.50
2019-01-26T08:07:47.736Z,1.50
2019-01-26T08:10:18.797Z,1.50
2019-01-26T08:12:47.343Z,1.50
2019-01-26T08:15:18.700Z,1.50
2019-01-26T08:17:47.112Z,1.50
2019-01-26T08:20:17.983Z,1.50
2019-01-26T08:22:46.396Z,1.50
2019-01-26T08:25:14.970Z,1.50
2019-01-26T08:27:43.372Z,1.50
2019-01-26T08:30:20.361Z,1.50
2019-01-26T08:32:49.054Z,1.50
2019-01-26T08:35:17.917Z,1.50
2019-01-26T08:37:46.467Z,1.60
2019-01-26T08:40:19.956Z,1.60
2019-01-26T08:42:48.703Z,1.60
2019-01-26T08:45:17.268Z,1.60
2019-01-26T08:47:45.674Z,1.60
2019-01-26T08:50:19.481Z,1.60
2019-01-26T08:52:47.899Z,1.70
2019-01-26T08:55:18.290Z,1.70
2019-01-26T08:57:46.716Z,1.80
2019-01-26T09:00:18.522Z,1.80
2019-01-26T09:02:55.505Z,1.90
2019-01-26T09:05:25.889Z,1.90
2019-01-26T09:07:54.368Z,2.00
2019-01-26T09:10:22.790Z,2.00
2019-01-26T09:12:51.196Z,2.00
2019-01-26T09:15:19.697Z,2.00
2019-01-26T09:17:48.476Z,2.00
2019-01-26T09:20:17.832Z,2.00
2019-01-26T09:22:46.311Z,2.00
2019-01-26T09:25:14.995Z,2.00
2019-01-26T09:27:43.473Z,2.00
2019-01-26T09:30:17.461Z,2.00
2019-01-26T09:32:45.874Z,2.10
2019-01-26T09:35:15.161Z,2.10
2019-01-26T09:37:43.645Z,2.10
2019-01-26T09:40:18.449Z,2.20
2019-01-26T09:42:46.860Z,2.20
2019-01-26T09:45:19.672Z,2.30
2019-01-26T09:47:48.426Z,2.30
2019-01-26T09:50:17.681Z,2.40
2019-01-26T09:52:46.100Z,2.40
2019-01-26T09:55:19.753Z,2.40
2019-01-26T09:57:48.184Z,2.40
2019-01-26T10:00:22.228Z,2.40
2019-01-26T10:02:50.696Z,2.30
2019-01-26T10:05:19.291Z,2.40
2019-01-26T10:07:48.549Z,2.40
2019-01-26T10:10:17.411Z,2.40
2019-01-26T10:12:45.829Z,2.40
2019-01-26T10:15:19.615Z,2.40
2019-01-26T10:17:48.024Z,2.50
2019-01-26T10:20:22.472Z,2.40
2019-01-26T10:22:50.948Z,2.50
2019-01-26T10:25:19.450Z,2.50
2019-01-26T10:27:47.871Z,2.60
2019-01-26T10:30:29.299Z,2.60
2019-01-26T10:32:57.720Z,2.70
2019-01-26T10:35:27.781Z,2.70
2019-01-26T10:37:56.192Z,2.70
2019-01-26T10:40:31.787Z,2.70
2019-01-26T10:43:00.272Z,2.70
2019-01-26T10:45:29.492Z,2.80
2019-01-26T10:47:57.919Z,2.90
2019-01-26T10:50:26.333Z,2.90
2019-01-26T10:53:14.097Z,2.90
2019-01-26T10:55:42.500Z,2.90
2019-01-26T10:58:10.927Z,2.90
2019-01-26T11:00:39.333Z,2.90
2019-01-26T11:03:08.248Z,2.90
2019-01-26T11:05:36.662Z,3.00
2019-01-26T11:08:05.429Z,3.10
2019-01-26T11:10:33.850Z,3.10
2019-01-26T11:13:02.276Z,3.10
2019-01-26T11:15:30.688Z,3.20
2019-01-26T11:17:59.100Z,3.20
2019-01-26T11:20:27.588Z,3.30
2019-01-26T11:22:56.011Z,3.30
2019-01-26T11:25:24.419Z,3.30
2019-01-26T11:27:52.840Z,3.30
2019-01-26T11:30:22.892Z,3.30
2019-01-26T11:32:51.320Z,3.30
2019-01-26T11:35:24.529Z,3.40
2019-01-26T11:37:52.960Z,3.40
2019-01-26T11:40:23.056Z,3.40
2019-01-26T11:42:51.883Z,3.40
2019-01-26T11:45:25.229Z,3.30
2019-01-26T11:47:54.412Z,3.30
2019-01-26T11:50:30.520Z,3.20
2019-01-26T11:52:59.004Z,3.20
2019-01-26T11:55:29.066Z,3.10
2019-01-26T11:57:57.482Z,3.10
2019-01-26T12:00:45.904Z,3.10
2019-01-26T12:03:31.224Z,3.10
2019-01-26T12:06:01.284Z,3.10
2019-01-26T12:08:29.695Z,3.10
2019-01-26T12:10:58.183Z,3.10
2019-01-26T12:13:26.596Z,3.10
2019-01-26T12:15:55.008Z,3.10
2019-01-26T12:18:23.428Z,3.20
2019-01-26T12:20:52.191Z,3.20
2019-01-26T12:23:20.600Z,3.20
2019-01-26T12:25:49.017Z,3.20
2019-01-26T12:28:17.448Z,3.30
2019-01-26T12:30:45.860Z,3.30
2019-01-26T12:33:14.270Z,3.30
2019-01-26T12:35:44.142Z,3.40
2019-01-26T12:38:12.837Z,3.40
2019-01-26T12:40:41.252Z,3.50
2019-01-26T12:43:09.664Z,3.50
2019-01-26T12:45:38.339Z,3.50
2019-01-26T12:48:06.748Z,3.50
2019-01-26T12:50:35.238Z,3.50
2019-01-26T12:53:03.884Z,3.40
2019-01-26T12:55:32.781Z,3.40
2019-01-26T12:58:01.192Z,3.50
2019-01-26T13:00:48.951Z,3.50
2019-01-26T13:05:45.767Z,3.60
2019-01-26T13:08:14.249Z,3.60
2019-01-26T13:20:36.984Z,3.60
2019-01-26T13:25:33.987Z,3.60
2019-01-26T13:28:02.413Z,3.70
2019-01-26T13:30:30.828Z,3.70
2019-01-26T13:35:27.855Z,3.60
2019-01-26T13:37:56.348Z,3.60
2019-01-26T13:42:53.738Z,3.50
2019-01-26T13:45:22.169Z,3.40
2019-01-26T13:57:44.489Z,3.60
2019-01-26T14:00:30.919Z,3.60
2019-01-26T14:07:55.500Z,3.60
2019-01-26T14:10:25.661Z,3.60
2019-01-26T14:12:54.088Z,3.70
2019-01-26T14:15:23.457Z,3.70
2019-01-26T14:17:51.931Z,3.70
2019-01-26T14:20:25.812Z,3.70
2019-01-26T14:22:54.572Z,3.70
2019-01-26T14:25:23.132Z,3.70
2019-01-26T14:35:21.321Z,3.70
2019-01-26T14:37:49.731Z,3.70
2019-01-26T14:57:42.576Z,3.50
2019-01-26T15:02:43.364Z,3.60
2019-01-26T15:05:12.151Z,3.50
2019-01-26T15:07:40.588Z,3.60
2019-01-26T15:10:11.039Z,3.50
2019-01-26T15:15:27.243Z,3.60
2019-01-26T15:17:55.655Z,3.70
2019-01-26T15:25:24.372Z,3.70
2019-01-26T15:27:52.796Z,3.70
2019-01-26T15:32:50.608Z,3.70
2019-01-26T15:40:15.257Z,3.60
2019-01-26T15:42:43.683Z,3.50
2019-01-26T15:45:26.908Z,3.40
2019-01-26T15:50:23.414Z,3.30
2019-01-26T15:55:26.572Z,3.20
2019-01-26T15:57:54.984Z,3.20
2019-01-26T16:02:53.035Z,3.10
2019-01-26T16:05:21.724Z,3.00
2019-01-26T16:07:50.402Z,3.00
2019-01-26T16:10:23.621Z,3.00
2019-01-26T16:15:23.020Z,2.90
2019-01-26T16:17:52.037Z,2.90
2019-01-26T16:22:49.463Z,2.80
2019-01-26T16:25:18.107Z,2.80
2019-01-26T16:30:45.755Z,2.80
2019-01-26T16:38:10.357Z,2.60
2019-01-26T16:45:37.804Z,2.40
2019-01-26T16:53:03.724Z,2.30
2019-01-26T16:55:32.380Z,2.30
2019-01-26T16:58:00.878Z,2.30
2019-01-26T17:03:01.696Z,2.30
2019-01-26T17:05:30.296Z,2.30
2019-01-26T17:20:24.750Z,2.40
2019-01-26T17:22:53.179Z,2.40
2019-01-26T17:30:20.513Z,2.50
2019-01-26T17:32:48.940Z,2.50
2019-01-26T17:35:17.430Z,2.60
2019-01-26T17:42:43.634Z,2.50
2019-01-26T17:45:13.882Z,2.50
2019-01-26T17:47:42.635Z,2.50
2019-01-26T18:02:36.208Z,2.50
2019-01-26T18:05:07.740Z,2.50
2019-01-26T18:07:36.140Z,2.60
2019-01-26T18:10:07.644Z,2.60
2019-01-26T18:12:36.056Z,2.60
2019-01-26T18:22:30.464Z,2.60
2019-01-26T18:24:58.885Z,2.60
2019-01-26T18:27:27.298Z,2.60
2019-01-26T18:34:51.896Z,2.50
2019-01-26T18:37:20.304Z,2.50
2019-01-26T18:39:48.732Z,2.50
2019-01-26T18:42:17.135Z,2.40
2019-01-26T18:44:45.552Z,2.40
2019-01-26T18:47:13.962Z,2.40
2019-01-26T18:49:42.384Z,2.40
2019-01-26T18:52:10.810Z,2.40
2019-01-26T18:54:39.221Z,2.40
2019-01-26T18:57:07.636Z,2.40
2019-01-26T18:59:36.120Z,2.50
2019-01-26T19:02:04.595Z,2.50
2019-01-26T19:04:33.263Z,1.10
2019-01-26T19:07:01.672Z,2.50
2019-01-26T19:09:30.095Z,2.50
2019-01-26T19:11:58.508Z,2.50
2019-01-26T19:14:26.920Z,2.50
2019-01-26T19:16:55.333Z,2.50
2019-01-26T19:19:23.751Z,2.40
2019-01-26T19:21:52.170Z,2.40
2019-01-26T19:24:20.572Z,2.40
2019-01-26T19:26:49.229Z,2.30
2019-01-26T19:29:17.640Z,2.30
2019-01-26T19:31:46.062Z,2.30
2019-01-26T19:34:21.901Z,2.30
2019-01-26T19:36:50.315Z,2.30
2019-01-26T19:39:18.729Z,2.30
2019-01-26T19:41:47.152Z,2.30
2019-01-26T19:44:15.565Z,2.20
2019-01-26T19:46:43.996Z,2.20
2019-01-26T19:49:13.231Z,2.20
2019-01-26T19:51:41.661Z,2.20
2019-01-26T19:54:10.065Z,2.10
2019-01-26T19:56:38.509Z,2.10
2019-01-26T19:59:07.056Z,2.10
2019-01-26T20:01:35.472Z,2.00
2019-01-26T20:04:05.020Z,2.00
2019-01-26T20:06:33.437Z,2.00
2019-01-26T20:09:01.844Z,2.00
2019-01-26T20:11:30.273Z,2.00
2019-01-26T20:13:58.992Z,2.00
2019-01-26T20:16:27.403Z,2.00
2019-01-26T20:18:55.821Z,2.00
2019-01-26T20:21:24.419Z,2.10
2019-01-26T20:23:52.827Z,2.10
2019-01-26T20:26:21.245Z,2.10
2019-01-26T20:28:49.653Z,2.10
2019-01-26T20:31:18.075Z,2.10
2019-01-26T20:33:46.492Z,2.20
2019-01-26T20:36:14.913Z,2.30
2019-01-26T20:38:43.328Z,2.30
2019-01-26T20:41:11.748Z,2.40
2019-01-26T20:43:40.165Z,2.40
2019-01-26T20:46:08.589Z,2.50
2019-01-26T20:48:37.005Z,2.50
2019-01-26T20:51:05.495Z,2.40
2019-01-26T20:53:33.904Z,2.40
2019-01-26T20:56:02.320Z,2.40
2019-01-26T20:58:30.732Z,2.50
2019-01-26T21:00:59.152Z,2.50
2019-01-26T21:03:27.559Z,2.50
2019-01-26T21:05:55.982Z,2.50
2019-01-26T21:08:24.388Z,2.50
2019-01-26T21:10:52.875Z,2.50
2019-01-26T21:13:21.296Z,2.50
2019-01-26T21:15:49.696Z,2.50
2019-01-26T21:18:18.116Z,2.50
2019-01-26T21:20:46.527Z,2.50
2019-01-26T21:23:14.976Z,2.50
2019-01-26T21:25:43.428Z,2.50
2019-01-26T21:28:11.850Z,2.50
2019-01-26T21:30:40.251Z,2.60
2019-01-26T21:33:08.695Z,2.60
2019-01-26T21:35:37.104Z,2.60
2019-01-26T21:38:05.592Z,2.50
2019-01-26T21:40:33.997Z,2.60
2019-01-26T21:43:02.491Z,2.60
2019-01-26T21:45:30.972Z,2.60
2019-01-26T21:47:59.463Z,2.60
2019-01-26T21:50:29.313Z,2.50
2019-01-26T21:52:58.168Z,2.60
2019-01-26T21:55:26.571Z,2.60
2019-01-26T21:57:55.062Z,2.60
2019-01-26T22:00:26.104Z,2.60
2019-01-26T22:02:54.524Z,2.70
2019-01-26T22:05:23.000Z,2.70
2019-01-26T22:07:51.992Z,2.70
2019-01-26T22:10:23.050Z,2.80
2019-01-26T22:12:51.467Z,2.70
2019-01-26T22:15:21.711Z,2.70
2019-01-26T22:17:50.271Z,2.70
2019-01-26T22:20:23.429Z,2.70
2019-01-26T22:22:51.916Z,2.70
2019-01-26T22:25:20.657Z,2.70
2019-01-26T22:27:49.366Z,2.70
2019-01-26T22:30:29.652Z,2.70
2019-01-26T22:32:58.135Z,2.70
2019-01-26T22:35:26.537Z,2.70
2019-01-26T22:37:55.120Z,2.70
2019-01-26T22:40:31.943Z,2.80
2019-01-26T22:43:00.787Z,2.80
2019-01-26T22:45:29.275Z,2.70
2019-01-26T22:47:57.689Z,2.70
2019-01-26T22:50:27.648Z,2.70
2019-01-26T22:52:56.059Z,2.70
2019-01-26T22:55:24.547Z,2.60
2019-01-26T22:57:53.023Z,2.60
2019-01-26T23:00:28.815Z,2.60
2019-01-26T23:02:57.305Z,2.60
2019-01-26T23:05:34.868Z,2.60
2019-01-26T23:08:03.881Z,2.70
2019-01-26T23:10:35.376Z,2.70
2019-01-26T23:13:06.874Z,2.70
2019-01-26T23:15:46.871Z,2.70
2019-01-26T23:18:21.235Z,2.70
2019-01-26T23:20:55.612Z,3.50
2019-01-26T23:23:46.821Z,2.70
2019-01-26T23:26:34.991Z,2.80
2019-01-26T23:29:21.318Z,2.70
2019-01-26T23:31:49.731Z,2.60
2019-01-26T23:34:18.166Z,2.70
2019-01-26T23:36:46.576Z,2.60
2019-01-26T23:39:14.987Z,2.60
2019-01-26T23:41:43.654Z,2.50
2019-01-26T23:44:12.068Z,2.50
2019-01-26T23:46:40.513Z,2.50
2019-01-26T23:49:08.933Z,2.50
2019-01-26T23:51:37.488Z,2.50
2019-01-26T23:54:05.965Z,3.70
2019-01-26T23:56:34.386Z,2.60
2019-01-26T23:59:03.096Z,2.60
